createdAt,value
2022-10-05T00:00:21.943Z,13.63
2022-10-05T00:02:45.406Z,11.52
2022-10-05T00:05:34.043Z,14.27
2022-10-05T00:08:03.110Z,15.07
2022-10-05T00:10:25.730Z,14.25
2022-10-05T00:12:49.307Z,14.20
2022-10-05T00:15:13.174Z,13.40
2022-10-05T00:17:35.672Z,15.07
2022-10-05T00:19:58.232Z,14.07
2022-10-05T00:22:29.938Z,14.82
2022-10-05T00:24:59.110Z,14.67
2022-10-05T00:27:27.112Z,15.75
2022-10-05T00:29:51.391Z,15.85
2022-10-05T00:32:14.200Z,14.73
2022-10-05T00:34:37.330Z,23.33
2022-10-05T00:36:59.936Z,18.70
2022-10-05T00:39:22.512Z,18.42
2022-10-05T00:41:53.630Z,19.35
2022-10-05T00:44:40.966Z,18.50
2022-10-05T00:47:51.160Z,16.60
2022-10-05T00:50:25.867Z,15.27
2022-10-05T00:53:22.698Z,12.52
2022-10-05T00:55:54.465Z,14.73
2022-10-05T00:58:30.531Z,17.45
2022-10-05T01:01:05.258Z,18.42
2022-10-05T01:03:47.691Z,18.60
2022-10-05T01:06:28.372Z,19.58
2022-10-05T01:09:02.506Z,19.60
2022-10-05T01:11:43.399Z,16.30
2022-10-05T01:14:15.000Z,20.08
2022-10-05T01:16:41.294Z,17.37
2022-10-05T01:19:06.851Z,18.90
2022-10-05T01:21:35.483Z,18.40
2022-10-05T01:24:28.594Z,19.23
2022-10-05T01:26:53.943Z,17.98
2022-10-05T01:29:32.547Z,17.77
2022-10-05T01:32:31.159Z,16.70
2022-10-05T01:35:22.942Z,18.58
2022-10-05T01:38:03.979Z,15.55
2022-10-05T01:41:04.667Z,17.98
2022-10-05T01:43:39.639Z,15.30
2022-10-05T01:46:08.083Z,15.15
2022-10-05T01:48:40.499Z,16.55
2022-10-05T01:51:14.696Z,16.95
2022-10-05T01:53:46.139Z,15.75
2022-10-05T01:56:12.390Z,16.00
2022-10-05T01:58:52.825Z,15.40
2022-10-05T02:01:18.307Z,15.93
2022-10-05T02:04:08.792Z,16.80
2022-10-05T02:06:37.633Z,17.00
2022-10-05T02:09:05.892Z,15.07
2022-10-05T02:11:28.485Z,19.25
2022-10-05T02:14:06.247Z,17.52
2022-10-05T02:16:48.962Z,15.30
2022-10-05T02:19:27.664Z,15.18
2022-10-05T02:22:05.413Z,15.67
2022-10-05T02:24:36.096Z,16.17
2022-10-05T02:26:58.948Z,15.20
2022-10-05T02:29:24.570Z,18.67
2022-10-05T02:32:00.198Z,18.48
2022-10-05T02:34:27.091Z,16.57
2022-10-05T02:37:06.703Z,16.35
2022-10-05T02:39:52.511Z,19.52
2022-10-05T02:42:27.844Z,18.08
2022-10-05T02:44:56.742Z,17.20
2022-10-05T02:47:56.712Z,16.47
2022-10-05T02:50:32.761Z,15.50
2022-10-05T02:53:16.760Z,16.77
2022-10-05T02:56:21.609Z,17.65
2022-10-05T02:59:19.476Z,17.50
2022-10-05T03:01:45.311Z,17.43
2022-10-05T03:04:14.833Z,13.90
2022-10-05T03:06:51.969Z,15.10
2022-10-05T03:09:18.226Z,18.85
2022-10-05T03:11:46.551Z,16.05
2022-10-05T03:14:26.235Z,17.80
2022-10-05T03:17:23.644Z,16.70
2022-10-05T03:20:00.262Z,14.90
2022-10-05T03:22:44.345Z,13.82
2022-10-05T03:25:24.980Z,15.13
2022-10-05T03:27:57.863Z,16.40
2022-10-05T03:30:23.440Z,14.60
2022-10-05T03:33:26.800Z,17.05
2022-10-05T03:36:02.237Z,14.70
2022-10-05T03:38:55.350Z,15.82
2022-10-05T03:41:28.191Z,14.17
2022-10-05T03:43:59.850Z,14.93
2022-10-05T03:46:56.452Z,16.58
2022-10-05T03:49:27.051Z,17.85
2022-10-05T03:51:59.997Z,15.98
2022-10-05T03:54:28.813Z,16.53
2022-10-05T03:57:10.323Z,16.23
2022-10-05T03:59:40.570Z,18.52
2022-10-05T04:02:31.298Z,16.63
2022-10-05T04:05:17.195Z,17.65
2022-10-05T04:08:12.965Z,16.90
2022-10-05T04:10:46.699Z,18.40
2022-10-05T04:13:15.957Z,15.65
2022-10-05T04:15:50.450Z,20.10
2022-10-05T04:18:29.065Z,16.95
2022-10-05T04:20:57.452Z,15.77
2022-10-05T04:23:41.208Z,18.80
2022-10-05T04:26:09.877Z,17.52
2022-10-05T04:28:47.324Z,17.02
2022-10-05T04:31:21.426Z,16.27
2022-10-05T04:33:54.360Z,16.53
2022-10-05T04:36:24.431Z,18.27
2022-10-05T04:39:05.347Z,17.27
2022-10-05T04:41:43.701Z,19.00
2022-10-05T04:44:12.407Z,17.42
2022-10-05T04:46:45.061Z,18.27
2022-10-05T04:49:46.784Z,18.63
2022-10-05T04:52:09.528Z,16.50
2022-10-05T04:54:52.313Z,19.10
2022-10-05T04:57:23.665Z,15.93
2022-10-05T05:00:05.732Z,17.37
2022-10-05T05:02:39.338Z,16.90
2022-10-05T05:05:20.381Z,17.08
2022-10-05T05:08:09.080Z,18.95
2022-10-05T05:10:38.894Z,19.65
2022-10-05T05:13:33.866Z,20.13
2022-10-05T05:16:16.201Z,17.58
2022-10-05T05:18:58.633Z,17.27
2022-10-05T05:21:38.057Z,19.55
2022-10-05T05:24:38.639Z,18.13
2022-10-05T05:27:35.883Z,17.10
2022-10-05T05:30:14.949Z,18.92
2022-10-05T05:32:57.874Z,17.77
2022-10-05T05:35:43.698Z,18.98
2022-10-05T05:38:51.422Z,17.75
2022-10-05T05:41:34.801Z,16.87
2022-10-05T05:44:06.680Z,16.77
2022-10-05T05:46:58.271Z,16.27
2022-10-05T05:49:38.148Z,16.70
2022-10-05T05:52:12.472Z,19.13
2022-10-05T05:54:52.551Z,16.10
2022-10-05T05:57:33.694Z,17.40
2022-10-05T06:00:29.069Z,17.67
2022-10-05T06:03:28.362Z,15.65
2022-10-05T06:06:00.741Z,14.43
2022-10-05T06:08:50.395Z,15.30
2022-10-05T06:11:40.267Z,15.15
2022-10-05T06:14:13.137Z,15.90
2022-10-05T06:16:49.728Z,17.70
2022-10-05T06:19:16.661Z,14.63
2022-10-05T06:21:48.336Z,15.77
2022-10-05T06:24:34.876Z,15.15
2022-10-05T06:27:17.435Z,17.13
2022-10-05T06:30:11.650Z,17.08
2022-10-05T06:33:13.620Z,18.88
2022-10-05T06:36:15.335Z,16.03
2022-10-05T06:39:09.345Z,16.98
2022-10-05T06:41:54.961Z,16.65
2022-10-05T06:44:49.250Z,18.70
2022-10-05T06:47:25.504Z,20.58
2022-10-05T06:50:18.612Z,18.73
2022-10-05T06:53:05.332Z,22.33
2022-10-05T06:55:41.254Z,22.70
2022-10-05T06:58:05.318Z,23.40
2022-10-05T07:00:49.735Z,21.50
2022-10-05T07:03:24.661Z,24.40
2022-10-05T07:06:37.940Z,21.80
2022-10-05T07:09:01.960Z,21.92
2022-10-05T07:11:37.912Z,21.33
2022-10-05T07:14:01.489Z,20.65
2022-10-05T07:17:01.486Z,19.57
2022-10-05T07:19:33.536Z,19.98
2022-10-05T07:22:15.130Z,19.75
2022-10-05T07:24:47.641Z,20.52
2022-10-05T07:27:18.513Z,23.75
2022-10-05T07:30:06.701Z,20.63
2022-10-05T07:32:34.976Z,20.60
2022-10-05T07:35:44.133Z,22.55
2022-10-05T07:38:40.519Z,20.42
2022-10-05T07:41:51.228Z,19.83
2022-10-05T07:44:29.086Z,14.80
2022-10-05T07:47:15.410Z,16.73
2022-10-05T07:50:01.749Z,18.33
2022-10-05T07:53:00.804Z,16.15
2022-10-05T07:55:27.471Z,16.55
2022-10-05T07:58:15.171Z,19.53
2022-10-05T08:01:22.107Z,17.05
2022-10-05T08:03:58.621Z,18.17
2022-10-05T08:06:42.374Z,21.00
2022-10-05T08:09:46.558Z,18.98
2022-10-05T08:12:37.763Z,17.40
2022-10-05T08:15:03.667Z,21.60
2022-10-05T08:17:40.356Z,18.52
2022-10-05T08:20:24.179Z,17.70
2022-10-05T08:22:51.459Z,17.73
2022-10-05T08:25:26.699Z,19.50
2022-10-05T08:28:15.478Z,19.17
2022-10-05T08:30:55.117Z,19.02
2022-10-05T08:33:20.278Z,17.92
2022-10-05T08:35:48.091Z,18.50
2022-10-05T08:38:18.553Z,18.40
2022-10-05T08:40:57.055Z,16.00
2022-10-05T08:43:31.744Z,15.70
2022-10-05T08:46:22.503Z,13.55
2022-10-05T08:49:21.007Z,16.60
2022-10-05T08:51:56.861Z,11.93
2022-10-05T08:54:39.314Z,12.68
2022-10-05T08:57:13.772Z,15.25
2022-10-05T08:59:54.619Z,12.82
2022-10-05T09:02:42.964Z,12.55
2022-10-05T09:05:36.565Z,14.10
2022-10-05T09:08:26.631Z,10.90
2022-10-05T09:10:55.269Z,10.90
2022-10-05T09:13:36.092Z,11.32
2022-10-05T09:16:20.566Z,10.50
2022-10-05T09:19:13.464Z,11.07
2022-10-05T09:21:48.959Z,12.05
2022-10-05T09:24:14.738Z,10.18
2022-10-05T09:26:40.777Z,9.63
2022-10-05T09:29:39.085Z,12.50
2022-10-05T09:32:16.760Z,10.70
2022-10-05T09:34:55.675Z,10.85
2022-10-05T09:37:28.732Z,10.63
2022-10-05T09:40:21.411Z,10.80
2022-10-05T09:43:02.514Z,9.52
2022-10-05T09:45:28.343Z,9.53
2022-10-05T09:48:09.715Z,10.85
2022-10-05T09:50:38.165Z,12.55
2022-10-05T09:53:24.831Z,11.35
2022-10-05T09:56:01.353Z,9.88
2022-10-05T09:58:33.376Z,10.97
2022-10-05T10:01:29.134Z,11.60
2022-10-05T10:04:07.174Z,8.60
2022-10-05T10:06:54.706Z,9.70
2022-10-05T10:09:38.503Z,10.15
2022-10-05T10:12:18.367Z,11.13
2022-10-05T10:15:18.450Z,9.73
2022-10-05T10:17:56.207Z,10.57
2022-10-05T10:20:26.948Z,10.10
2022-10-05T10:23:28.925Z,8.60
2022-10-05T10:26:09.223Z,8.97
2022-10-05T10:28:52.195Z,10.70
2022-10-05T10:31:34.170Z,8.13
2022-10-05T10:34:14.415Z,8.95
2022-10-05T10:36:52.397Z,9.27
2022-10-05T10:39:40.369Z,9.03
2022-10-05T10:42:29.955Z,10.18
2022-10-05T10:45:48.737Z,8.23
2022-10-05T10:48:54.613Z,8.50
2022-10-05T10:51:39.568Z,9.30
2022-10-05T10:54:56.254Z,8.13
2022-10-05T10:57:44.371Z,8.43
2022-10-05T11:00:27.216Z,6.50
2022-10-05T11:03:35.860Z,6.38
2022-10-05T11:06:13.380Z,6.25
2022-10-05T11:08:38.705Z,6.33
2022-10-05T11:11:15.811Z,7.93
2022-10-05T11:14:02.987Z,8.50
2022-10-05T11:16:46.817Z,7.20
2022-10-05T11:19:35.130Z,6.05
2022-10-05T11:22:21.989Z,6.37
2022-10-05T11:25:19.857Z,9.35
2022-10-05T11:28:04.629Z,5.80
2022-10-05T11:30:46.244Z,5.15
2022-10-05T11:33:14.378Z,4.70
2022-10-05T11:35:52.371Z,5.20
2022-10-05T11:38:58.297Z,4.30
2022-10-05T11:42:11.728Z,5.95
2022-10-05T11:45:12.045Z,6.07
2022-10-05T11:47:45.661Z,4.88
2022-10-05T11:50:21.184Z,4.97
2022-10-05T11:52:57.102Z,9.00
2022-10-05T11:55:42.746Z,5.30
2022-10-05T11:58:23.082Z,6.50
2022-10-05T12:01:06.480Z,4.43
2022-10-05T12:03:35.297Z,6.03
2022-10-05T12:06:26.861Z,4.63
2022-10-05T12:09:17.407Z,3.92
2022-10-05T12:11:57.890Z,3.85
2022-10-05T12:14:54.516Z,4.35
2022-10-05T12:17:38.663Z,3.50
2022-10-05T12:20:27.881Z,4.63
2022-10-05T12:22:58.729Z,4.53
2022-10-05T12:25:40.920Z,2.90
2022-10-05T12:28:11.456Z,3.60
2022-10-05T12:30:52.792Z,4.07
2022-10-05T12:33:18.789Z,3.65
2022-10-05T12:36:05.845Z,4.22
2022-10-05T12:38:33.559Z,4.30
2022-10-05T12:41:04.969Z,5.30
2022-10-05T12:43:47.689Z,4.90
2022-10-05T12:46:47.087Z,5.88
2022-10-05T12:49:37.330Z,4.25
2022-10-05T12:52:06.386Z,3.80
2022-10-05T12:54:36.800Z,4.53
2022-10-05T12:57:14.844Z,5.20
2022-10-05T12:59:59.572Z,7.10
2022-10-05T13:02:30.613Z,5.55
2022-10-05T13:05:11.643Z,5.22
2022-10-05T13:07:34.232Z,5.25
2022-10-05T13:10:03.017Z,4.13
2022-10-05T13:12:40.857Z,6.25
2022-10-05T13:15:34.483Z,4.32
2022-10-05T13:18:13.028Z,4.53
2022-10-05T13:20:46.957Z,5.97
2022-10-05T13:23:31.409Z,7.17
2022-10-05T13:26:08.829Z,6.28
2022-10-05T13:28:42.262Z,3.35
2022-10-05T13:31:27.027Z,4.63
2022-10-05T13:34:21.710Z,3.58
2022-10-05T13:36:47.044Z,5.17
2022-10-05T13:39:15.655Z,3.47
2022-10-05T13:41:59.735Z,5.55
2022-10-05T13:44:48.322Z,5.10
2022-10-05T13:47:16.990Z,5.47
2022-10-05T13:53:21.937Z,4.15
2022-10-05T13:56:06.744Z,4.13
2022-10-05T13:58:41.282Z,6.22
2022-10-05T14:01:13.360Z,5.35
2022-10-05T14:03:38.061Z,5.27
2022-10-05T14:06:05.490Z,5.43
2022-10-05T14:08:45.882Z,3.65
2022-10-05T14:11:23.497Z,6.38
2022-10-05T14:13:47.857Z,5.88
2022-10-05T14:16:13.281Z,6.13
2022-10-05T14:18:38.153Z,6.25
2022-10-05T14:21:12.795Z,5.60
2022-10-05T14:23:35.900Z,5.55
2022-10-05T14:25:58.466Z,4.00
2022-10-05T14:28:34.988Z,3.97
2022-10-05T14:31:16.237Z,6.70
2022-10-05T14:33:39.532Z,6.15
2022-10-05T14:36:02.547Z,9.20
2022-10-05T14:38:29.476Z,4.38
2022-10-05T14:41:19.852Z,4.47
2022-10-05T14:43:59.708Z,5.18
2022-10-05T14:46:29.577Z,7.00
2022-10-05T14:49:17.185Z,6.55
2022-10-05T14:51:42.176Z,6.80
2022-10-05T14:54:53.939Z,7.00
2022-10-05T14:57:36.151Z,7.35
2022-10-05T15:00:01.548Z,6.13
2022-10-05T15:02:54.204Z,7.30
2022-10-05T15:05:37.955Z,7.22
2022-10-05T15:08:17.384Z,6.60
2022-10-05T15:10:52.097Z,5.95
2022-10-05T15:13:21.936Z,8.20
2022-10-05T15:15:57.540Z,6.97
2022-10-05T15:18:34.917Z,7.00
2022-10-05T15:21:12.328Z,6.90
2022-10-05T15:23:53.229Z,8.73
2022-10-05T15:26:39.514Z,7.93
2022-10-05T15:29:14.163Z,7.20
2022-10-05T15:31:40.797Z,6.75
2022-10-05T15:34:09.418Z,6.27
2022-10-05T15:36:56.649Z,7.82
2022-10-05T15:39:35.888Z,10.40
2022-10-05T15:42:03.436Z,5.75
2022-10-05T15:44:47.382Z,11.70
2022-10-05T15:47:19.167Z,7.10
2022-10-05T15:50:21.680Z,6.55
2022-10-05T15:52:50.130Z,8.02
2022-10-05T15:55:44.023Z,6.40
2022-10-05T15:58:31.384Z,5.00
2022-10-05T16:01:03.805Z,7.27
2022-10-05T16:03:48.628Z,6.97
2022-10-05T16:06:51.820Z,8.38
2022-10-05T16:09:24.560Z,8.68
2022-10-05T16:12:09.820Z,9.38
2022-10-05T16:14:41.259Z,9.00
2022-10-05T16:17:26.948Z,7.18
2022-10-05T16:19:57.540Z,7.75
2022-10-05T16:22:43.402Z,8.45
2022-10-05T16:25:34.942Z,7.43
2022-10-05T16:28:05.326Z,5.87
2022-10-05T16:30:32.313Z,8.43
2022-10-05T16:33:11.989Z,6.28
2022-10-05T16:36:12.083Z,8.25
2022-10-05T16:38:54.290Z,7.68
2022-10-05T16:41:41.200Z,8.03
2022-10-05T16:44:37.764Z,8.43
2022-10-05T16:47:12.380Z,6.43
2022-10-05T16:49:46.908Z,5.55
2022-10-05T16:52:18.994Z,6.68
2022-10-05T16:55:06.324Z,9.07
2022-10-05T16:57:37.724Z,8.85
2022-10-05T17:00:20.505Z,9.02
2022-10-05T17:03:06.198Z,8.82
2022-10-05T17:05:31.677Z,9.27
2022-10-05T17:08:13.116Z,7.70
2022-10-05T17:10:57.084Z,11.00
2022-10-05T17:13:36.300Z,9.10
2022-10-05T17:16:10.762Z,8.88
2022-10-05T17:18:39.268Z,9.98
2022-10-05T17:21:25.415Z,10.77
2022-10-05T17:23:54.853Z,11.48
2022-10-05T17:26:59.706Z,11.75
2022-10-05T17:29:47.724Z,9.32
2022-10-05T17:32:16.094Z,11.38
2022-10-05T17:35:02.465Z,10.13
2022-10-05T17:38:15.492Z,10.35
2022-10-05T17:40:39.189Z,13.38
2022-10-05T17:43:17.191Z,13.52
2022-10-05T17:45:42.639Z,11.73
2022-10-05T17:48:08.951Z,11.57
2022-10-05T17:51:06.094Z,13.88
2022-10-05T17:53:54.113Z,14.27
2022-10-05T17:56:16.712Z,12.35
2022-10-05T17:58:54.716Z,11.88
2022-10-05T18:01:35.749Z,15.73
2022-10-05T18:04:13.518Z,13.60
2022-10-05T18:06:37.883Z,13.57
2022-10-05T18:09:20.979Z,15.43
2022-10-05T18:11:45.215Z,13.52
2022-10-05T18:14:16.035Z,12.13
2022-10-05T18:16:57.208Z,12.77
2022-10-05T18:19:22.517Z,15.32
2022-10-05T18:22:00.963Z,14.93
2022-10-05T18:24:29.868Z,14.45
2022-10-05T18:27:03.732Z,13.87
2022-10-05T18:29:44.771Z,15.40
2022-10-05T18:32:34.891Z,14.50
2022-10-05T18:35:08.157Z,17.50
2022-10-05T18:37:37.231Z,15.82
2022-10-05T18:40:31.677Z,15.13
2022-10-05T18:43:26.637Z,16.25
2022-10-05T18:46:26.823Z,14.48
2022-10-05T18:49:15.401Z,13.30
2022-10-05T18:51:56.768Z,13.95
2022-10-05T18:54:28.072Z,12.77
2022-10-05T18:56:52.928Z,13.30
2022-10-05T18:59:26.957Z,14.30
2022-10-05T19:01:54.508Z,13.02
2022-10-05T19:04:26.478Z,13.15
2022-10-05T19:06:49.024Z,14.27
2022-10-05T19:09:39.467Z,13.90
2022-10-05T19:12:18.199Z,13.82
2022-10-05T19:14:56.522Z,12.07
2022-10-05T19:17:41.240Z,13.02
2022-10-05T19:20:18.650Z,12.47
2022-10-05T19:23:27.518Z,13.35
2022-10-05T19:26:13.904Z,12.52
2022-10-05T19:28:56.099Z,11.43
2022-10-05T19:31:30.243Z,13.30
2022-10-05T19:34:09.063Z,13.07
2022-10-05T19:36:48.968Z,13.68
2022-10-05T19:39:37.151Z,14.73
2022-10-05T19:42:22.653Z,14.13
2022-10-05T19:45:18.744Z,15.88
2022-10-05T19:48:27.210Z,12.93
2022-10-05T19:50:55.944Z,12.70
2022-10-05T19:53:25.588Z,16.58
2022-10-05T19:55:48.208Z,17.90
2022-10-05T19:58:32.288Z,13.70
2022-10-05T20:00:58.418Z,11.90
2022-10-05T20:03:29.813Z,12.98
2022-10-05T20:05:54.626Z,13.18
2022-10-05T20:08:19.898Z,13.73
2022-10-05T20:10:43.204Z,16.13
2022-10-05T20:13:08.657Z,14.60
2022-10-05T20:15:54.783Z,13.52
2022-10-05T20:18:55.993Z,14.43
2022-10-05T20:21:39.637Z,14.48
2022-10-05T20:24:20.315Z,15.95
2022-10-05T20:27:08.799Z,16.20
2022-10-05T20:29:40.579Z,14.05
2022-10-05T20:32:15.283Z,14.77
2022-10-05T20:34:46.788Z,13.02
2022-10-05T20:37:11.537Z,13.98
2022-10-05T20:39:34.112Z,16.03
2022-10-05T20:41:56.853Z,25.30
2022-10-05T20:44:19.544Z,29.65
2022-10-05T20:46:42.195Z,36.40
2022-10-05T20:49:04.875Z,36.85
2022-10-05T20:51:30.618Z,33.73
2022-10-05T20:53:56.211Z,32.83
2022-10-05T20:56:20.125Z,32.85
2022-10-05T20:58:44.230Z,26.90
2022-10-05T21:01:19.977Z,26.05
2022-10-05T21:03:42.883Z,20.73
2022-10-05T21:06:11.111Z,18.95
2022-10-05T21:08:36.995Z,21.63
2022-10-05T21:10:59.487Z,20.15
2022-10-05T21:13:22.052Z,19.83
2022-10-05T21:15:44.916Z,20.30
2022-10-05T21:18:07.390Z,18.95
2022-10-05T21:20:29.965Z,21.05
2022-10-05T21:22:52.528Z,17.33
2022-10-05T21:25:15.108Z,17.38
2022-10-05T21:27:41.308Z,19.17
2022-10-05T21:30:06.501Z,18.85
2022-10-05T21:32:29.159Z,20.30
2022-10-05T21:34:51.699Z,18.65
2022-10-05T21:37:15.547Z,18.98
2022-10-05T21:39:38.910Z,17.43
2022-10-05T21:42:01.599Z,15.93
2022-10-05T21:44:24.053Z,17.17
2022-10-05T21:46:47.137Z,19.40
2022-10-05T21:49:09.864Z,15.55
2022-10-05T21:51:35.380Z,14.40
2022-10-05T21:54:02.780Z,15.98
2022-10-05T21:56:30.367Z,16.38
2022-10-05T21:58:52.884Z,18.33
2022-10-05T22:01:20.146Z,16.52
2022-10-05T22:03:45.137Z,17.30
2022-10-05T22:06:08.152Z,17.45
2022-10-05T22:08:35.073Z,19.33
2022-10-05T22:10:59.020Z,19.42
2022-10-05T22:13:26.755Z,17.52
2022-10-05T22:15:49.550Z,18.03
2022-10-05T22:18:17.602Z,25.90
2022-10-05T22:20:41.101Z,22.40
2022-10-05T22:23:07.537Z,20.27
2022-10-05T22:25:33.811Z,21.08
2022-10-05T22:27:56.495Z,21.20
2022-10-05T22:30:20.055Z,18.73
2022-10-05T22:32:43.975Z,18.15
2022-10-05T22:35:11.326Z,18.33
2022-10-05T22:37:38.187Z,20.17
2022-10-05T22:40:02.696Z,21.30
2022-10-05T22:42:25.888Z,20.58
2022-10-05T22:44:48.528Z,18.20
2022-10-05T22:47:11.354Z,17.23
2022-10-05T22:49:34.004Z,18.17
2022-10-05T22:51:56.591Z,17.77
2022-10-05T22:54:19.270Z,18.08
2022-10-05T22:56:41.915Z,18.17
2022-10-05T22:59:05.623Z,21.75
2022-10-05T23:01:29.811Z,21.38
2022-10-05T23:03:52.460Z,19.80
2022-10-05T23:06:17.833Z,20.02
2022-10-05T23:08:41.672Z,18.67
2022-10-05T23:11:12.859Z,19.40
2022-10-05T23:13:35.738Z,17.65
2022-10-05T23:15:58.256Z,16.70
2022-10-05T23:18:20.821Z,15.48
2022-10-05T23:20:43.458Z,17.20
2022-10-05T23:23:06.062Z,15.02
2022-10-05T23:25:28.636Z,16.48
2022-10-05T23:27:51.573Z,16.63
2022-10-05T23:30:14.306Z,18.33
2022-10-05T23:32:41.444Z,19.85
2022-10-05T23:35:04.427Z,18.17
2022-10-05T23:37:28.025Z,19.75
2022-10-05T23:39:50.548Z,19.43
2022-10-05T23:42:14.377Z,16.77
2022-10-05T23:44:36.881Z,16.70
2022-10-05T23:46:59.568Z,16.05
2022-10-05T23:49:22.217Z,17.38
2022-10-05T23:51:45.158Z,18.60
2022-10-05T23:54:07.656Z,16.75
2022-10-05T23:56:30.327Z,18.83
2022-10-05T23:58:52.815Z,16.70
